createdAt,value
2023-05-04T00:02:29.469Z,19.28
2023-05-04T00:05:00.087Z,19.29
2023-05-04T00:07:30.494Z,19.29
2023-05-04T00:10:04.908Z,19.30
2023-05-04T00:12:35.788Z,19.30
2023-05-04T00:15:06.996Z,19.31
2023-05-04T00:17:38.121Z,19.31
2023-05-04T00:20:09.160Z,19.30
2023-05-04T00:22:40.096Z,19.31
2023-05-04T00:25:10.903Z,19.32
2023-05-04T00:27:42.453Z,19.31
2023-05-04T00:30:13.197Z,19.31
2023-05-04T00:32:43.959Z,19.31
2023-05-04T00:35:14.657Z,19.32
2023-05-04T00:37:45.285Z,19.33
2023-05-04T00:40:15.799Z,19.33
2023-05-04T00:42:47.094Z,19.34
2023-05-04T00:45:17.636Z,19.34
2023-05-04T00:47:48.606Z,19.34
2023-05-04T00:50:18.997Z,19.35
2023-05-04T00:52:52.731Z,19.35
2023-05-04T00:55:24.964Z,19.36
2023-05-04T00:57:55.805Z,19.36
2023-05-04T01:00:26.200Z,19.35
2023-05-04T01:02:56.605Z,19.36
2023-05-04T01:05:33.295Z,19.38
2023-05-04T01:08:12.988Z,19.38
2023-05-04T01:11:01.552Z,19.38
2023-05-04T01:13:36.824Z,19.38
2023-05-04T01:16:08.470Z,19.38
2023-05-04T01:18:38.945Z,19.39
2023-05-04T01:21:10.619Z,19.40
2023-05-04T01:23:41.192Z,19.40
2023-05-04T01:26:26.471Z,19.41
2023-05-04T01:29:24.308Z,19.41
2023-05-04T01:31:55.818Z,19.41
2023-05-04T01:34:26.233Z,19.42
2023-05-04T01:36:57.571Z,19.44
2023-05-04T01:39:27.833Z,19.44
2023-05-04T01:41:59.177Z,19.43
2023-05-04T01:44:29.675Z,19.44
2023-05-04T01:47:00.203Z,19.45
2023-05-04T01:49:30.779Z,19.45
2023-05-04T01:52:01.767Z,19.45
2023-05-04T01:54:32.413Z,19.46
2023-05-04T01:57:03.769Z,19.47
2023-05-04T01:59:34.312Z,19.46
2023-05-04T02:02:05.394Z,19.47
2023-05-04T02:04:35.969Z,19.48
2023-05-04T02:07:07.140Z,19.48
2023-05-04T02:09:38.285Z,19.48
2023-05-04T02:12:08.748Z,19.49
2023-05-04T02:14:39.713Z,19.50
2023-05-04T02:17:10.736Z,19.50
2023-05-04T02:19:41.180Z,19.51
2023-05-04T02:22:11.490Z,19.51
2023-05-04T02:24:45.915Z,19.52
2023-05-04T02:27:16.350Z,19.52
2023-05-04T02:29:47.954Z,19.53
2023-05-04T02:32:19.444Z,19.53
2023-05-04T02:34:49.782Z,19.53
2023-05-04T02:37:21.079Z,19.55
2023-05-04T02:39:51.676Z,19.55
2023-05-04T02:42:22.773Z,19.56
2023-05-04T02:44:52.971Z,19.57
2023-05-04T02:47:23.396Z,19.57
2023-05-04T02:49:53.936Z,19.57
2023-05-04T02:52:25.254Z,19.57
2023-05-04T02:54:55.703Z,19.58
2023-05-04T02:57:26.140Z,19.59
2023-05-04T02:59:56.895Z,19.59
2023-05-04T03:02:27.332Z,19.60
2023-05-04T03:04:57.798Z,19.60
2023-05-04T03:07:29.922Z,19.62
2023-05-04T03:10:00.477Z,19.62
2023-05-04T03:12:30.912Z,19.61
2023-05-04T03:15:01.612Z,19.62
2023-05-04T03:17:32.269Z,19.62
2023-05-04T03:20:03.595Z,19.63
2023-05-04T03:22:35.936Z,19.64
2023-05-04T03:25:06.919Z,19.66
2023-05-04T03:27:38.481Z,19.66
2023-05-04T03:30:09.832Z,19.67
2023-05-04T03:32:42.434Z,19.67
2023-05-04T03:35:19.031Z,19.68
2023-05-04T03:37:54.228Z,19.68
2023-05-04T03:40:25.757Z,19.69
2023-05-04T03:42:57.323Z,19.69
2023-05-04T03:45:30.139Z,19.70
2023-05-04T03:48:01.231Z,19.71
2023-05-04T03:50:33.292Z,19.73
2023-05-04T03:53:03.704Z,19.72
2023-05-04T03:55:34.955Z,19.74
2023-05-04T03:58:05.356Z,19.75
2023-05-04T04:00:35.882Z,19.74
2023-05-04T04:03:13.938Z,19.76
2023-05-04T04:05:44.520Z,19.76
2023-05-04T04:08:15.790Z,19.77
2023-05-04T04:10:46.142Z,19.78
2023-05-04T04:13:17.245Z,19.79
2023-05-04T04:15:48.088Z,19.79
2023-05-04T04:18:18.594Z,19.80
2023-05-04T04:20:49.062Z,19.80
2023-05-04T04:23:23.286Z,19.81
2023-05-04T04:25:55.334Z,19.81
2023-05-04T04:28:26.236Z,19.82
2023-05-04T04:30:57.551Z,19.84
2023-05-04T04:33:28.295Z,19.84
2023-05-04T04:35:58.783Z,19.84
2023-05-04T04:38:29.243Z,19.85
2023-05-04T04:40:59.619Z,19.86
2023-05-04T04:43:30.237Z,19.86
2023-05-04T04:46:01.374Z,19.87
2023-05-04T04:48:31.775Z,19.87
2023-05-04T04:51:03.093Z,19.88
2023-05-04T04:53:33.714Z,19.89
2023-05-04T04:56:03.932Z,19.89
2023-05-04T04:58:35.111Z,19.90
2023-05-04T05:01:09.669Z,19.91
2023-05-04T05:03:40.072Z,19.92
2023-05-04T05:06:10.542Z,19.93
2023-05-04T05:08:41.592Z,19.94
2023-05-04T05:11:13.044Z,19.95
2023-05-04T05:13:43.402Z,19.95
2023-05-04T05:16:13.814Z,19.96
2023-05-04T05:18:44.567Z,19.97
2023-05-04T05:21:16.065Z,19.98
2023-05-04T05:23:46.469Z,19.99
2023-05-04T05:26:17.714Z,20.01
2023-05-04T05:28:48.210Z,20.01
2023-05-04T05:31:18.486Z,20.02
2023-05-04T05:33:49.050Z,20.03
2023-05-04T05:36:20.313Z,20.03
2023-05-04T05:38:50.872Z,20.04
2023-05-04T05:41:21.364Z,20.06
2023-05-04T05:43:51.945Z,20.06
2023-05-04T05:46:24.266Z,20.06
2023-05-04T05:48:54.678Z,20.08
2023-05-04T05:51:25.281Z,20.09
2023-05-04T05:53:55.725Z,20.09
2023-05-04T05:56:26.405Z,20.09
2023-05-04T05:58:57.316Z,20.11
2023-05-04T06:01:28.157Z,20.12
2023-05-04T06:03:59.883Z,20.11
2023-05-04T06:06:31.311Z,20.12
2023-05-04T06:09:01.944Z,20.14
2023-05-04T06:11:33.469Z,20.14
2023-05-04T06:14:04.139Z,20.15
2023-05-04T06:16:35.462Z,20.15
2023-05-04T06:19:06.274Z,20.16
2023-05-04T06:21:36.727Z,20.16
2023-05-04T06:24:07.573Z,20.16
2023-05-04T06:26:38.009Z,20.18
2023-05-04T06:29:08.465Z,20.19
2023-05-04T06:31:39.318Z,20.19
2023-05-04T06:34:10.531Z,20.20
2023-05-04T06:36:40.978Z,20.20
2023-05-04T06:39:11.734Z,20.20
2023-05-04T06:41:42.364Z,20.21
2023-05-04T06:44:13.302Z,20.20
2023-05-04T06:46:43.720Z,20.22
2023-05-04T06:49:14.062Z,20.22
2023-05-04T06:51:44.464Z,20.23
2023-05-04T06:54:14.985Z,20.23
2023-05-04T06:56:45.413Z,20.25
2023-05-04T06:59:18.325Z,20.24
2023-05-04T07:01:52.143Z,20.25
2023-05-04T07:04:24.767Z,20.25
2023-05-04T07:06:55.226Z,20.25
2023-05-04T07:09:25.654Z,20.27
2023-05-04T07:11:56.047Z,20.27
2023-05-04T07:14:26.479Z,20.28
2023-05-04T07:16:56.938Z,20.29
2023-05-04T07:19:27.359Z,20.28
2023-05-04T07:21:58.830Z,20.29
2023-05-04T07:24:32.322Z,20.29
2023-05-04T07:27:02.711Z,20.30
2023-05-04T07:29:33.711Z,20.30
2023-05-04T07:32:04.483Z,20.33
2023-05-04T07:34:44.935Z,20.33
2023-05-04T07:37:19.774Z,20.32
2023-05-04T07:39:50.139Z,20.33
2023-05-04T07:42:21.368Z,20.34
2023-05-04T07:44:51.802Z,20.33
2023-05-04T07:47:23.080Z,20.33
2023-05-04T07:49:55.045Z,20.35
2023-05-04T07:52:25.704Z,20.35
2023-05-04T07:54:56.454Z,20.35
2023-05-04T07:57:26.961Z,20.36
2023-05-04T07:59:58.103Z,20.36
2023-05-04T08:02:28.547Z,20.37
2023-05-04T08:04:58.959Z,20.36
2023-05-04T08:07:29.379Z,20.38
2023-05-04T08:10:00.056Z,20.38
2023-05-04T08:12:30.467Z,20.38
2023-05-04T08:15:01.049Z,20.38
2023-05-04T08:17:32.435Z,20.39
2023-05-04T08:20:03.451Z,20.39
2023-05-04T08:22:34.136Z,20.40
2023-05-04T08:25:05.044Z,20.40
2023-05-04T08:27:35.510Z,20.40
2023-05-04T08:30:06.753Z,20.41
2023-05-04T08:32:37.361Z,20.41
2023-05-04T08:35:08.096Z,20.41
2023-05-04T08:37:38.874Z,20.42
2023-05-04T08:40:10.601Z,20.42
2023-05-04T08:42:41.944Z,20.43
2023-05-04T08:45:12.822Z,20.43
2023-05-04T08:47:44.970Z,20.43
2023-05-04T08:50:15.709Z,20.44
2023-05-04T08:52:50.702Z,20.44
2023-05-04T08:55:21.492Z,20.45
2023-05-04T08:57:52.658Z,20.44
2023-05-04T09:00:24.592Z,20.45
2023-05-04T09:02:56.619Z,20.46
2023-05-04T09:05:28.200Z,20.46
2023-05-04T09:07:59.506Z,20.45
2023-05-04T09:10:30.018Z,20.46
2023-05-04T09:13:00.430Z,20.46
2023-05-04T09:15:33.033Z,20.46
2023-05-04T09:18:08.658Z,20.46
2023-05-04T09:20:49.735Z,20.46
2023-05-04T09:23:20.720Z,20.47
2023-05-04T09:25:54.917Z,20.47
2023-05-04T09:28:45.367Z,20.48
2023-05-04T09:31:16.652Z,20.48
2023-05-04T09:33:47.078Z,20.47
2023-05-04T09:36:22.519Z,20.48
2023-05-04T09:38:52.962Z,20.48
2023-05-04T09:41:34.998Z,20.49
2023-05-04T09:44:06.219Z,20.49
2023-05-04T09:46:37.537Z,20.49
2023-05-04T09:49:07.980Z,20.49
2023-05-04T09:51:39.140Z,20.49
2023-05-04T09:54:09.734Z,20.51
2023-05-04T09:56:54.492Z,20.50
2023-05-04T09:59:28.947Z,20.51
2023-05-04T10:02:04.834Z,20.52
2023-05-04T10:04:45.648Z,20.51
2023-05-04T10:07:16.148Z,20.52
2023-05-04T10:09:48.857Z,20.52
2023-05-04T10:12:20.009Z,20.52
2023-05-04T10:14:50.481Z,20.52
2023-05-04T10:17:48.034Z,20.52
2023-05-04T10:20:56.390Z,20.53
2023-05-04T10:23:39.049Z,20.52
2023-05-04T10:26:44.181Z,20.53
2023-05-04T10:29:26.560Z,20.53
2023-05-04T10:31:58.293Z,20.54
2023-05-04T10:34:33.498Z,20.52
2023-05-04T10:37:05.735Z,20.54
2023-05-04T10:39:37.506Z,20.54
2023-05-04T10:42:09.976Z,20.54
2023-05-04T10:45:00.451Z,20.54
2023-05-04T10:47:33.897Z,20.54
2023-05-04T10:50:17.471Z,20.54
2023-05-04T10:52:50.012Z,20.55
2023-05-04T10:55:21.431Z,20.55
2023-05-04T10:57:58.464Z,20.54
2023-05-04T11:00:39.917Z,20.55
2023-05-04T11:03:10.997Z,20.55
2023-05-04T11:05:47.944Z,20.55
2023-05-04T11:08:23.304Z,20.56
2023-05-04T11:11:04.513Z,20.56
2023-05-04T11:13:48.926Z,20.57
2023-05-04T11:16:27.334Z,20.57
2023-05-04T11:19:08.562Z,20.55
2023-05-04T11:21:39.429Z,20.56
2023-05-04T11:24:10.504Z,20.56
2023-05-04T11:26:51.177Z,20.56
2023-05-04T11:29:21.878Z,20.56
2023-05-04T11:31:58.276Z,20.56
2023-05-04T11:34:29.299Z,20.56
2023-05-04T11:37:00.032Z,20.56
2023-05-04T11:39:33.751Z,20.57
2023-05-04T11:42:10.396Z,20.58
2023-05-04T11:44:42.283Z,20.57
2023-05-04T11:47:13.590Z,20.57
2023-05-04T11:49:45.396Z,20.56
2023-05-04T11:52:16.111Z,20.56
2023-05-04T11:54:58.708Z,20.57
2023-05-04T11:57:29.109Z,20.58
2023-05-04T11:59:59.472Z,20.58
2023-05-04T12:02:30.014Z,20.58
2023-05-04T12:05:00.501Z,20.59
2023-05-04T12:07:31.111Z,20.59
2023-05-04T12:10:01.558Z,20.57
2023-05-04T12:12:37.990Z,20.58
2023-05-04T12:15:09.203Z,20.58
2023-05-04T12:17:44.076Z,20.57
2023-05-04T12:20:29.753Z,20.58
2023-05-04T12:23:00.811Z,20.59
2023-05-04T12:25:31.404Z,20.58
2023-05-04T12:28:02.076Z,20.59
2023-05-04T12:30:33.417Z,20.59
2023-05-04T12:33:03.972Z,20.59
2023-05-04T12:35:34.454Z,20.60
2023-05-04T12:38:04.835Z,20.58
2023-05-04T12:40:35.464Z,20.60
2023-05-04T12:43:05.688Z,20.60
2023-05-04T12:45:36.183Z,20.60
2023-05-04T12:48:06.752Z,20.60
2023-05-04T12:50:37.308Z,20.60
2023-05-04T12:53:08.623Z,20.58
2023-05-04T12:55:39.451Z,20.60
2023-05-04T12:58:10.731Z,20.60
2023-05-04T13:00:42.576Z,20.60
2023-05-04T13:03:14.749Z,20.61
2023-05-04T13:05:45.281Z,20.60
2023-05-04T13:08:15.657Z,20.61
2023-05-04T13:10:47.771Z,20.60
2023-05-04T13:13:19.534Z,20.60
2023-05-04T13:15:52.636Z,20.60
2023-05-04T13:18:28.400Z,20.60
2023-05-04T13:20:59.286Z,20.60
2023-05-04T13:23:30.567Z,20.62
2023-05-04T13:26:00.828Z,20.61
2023-05-04T13:28:31.584Z,20.60
2023-05-04T13:31:02.048Z,20.60
2023-05-04T13:33:36.797Z,20.61
2023-05-04T13:36:10.628Z,20.60
2023-05-04T13:38:41.076Z,20.60
2023-05-04T13:41:11.564Z,20.59
2023-05-04T13:43:42.056Z,20.60
2023-05-04T13:46:12.714Z,20.60
2023-05-04T13:48:43.121Z,20.61
2023-05-04T13:51:13.687Z,20.61
2023-05-04T13:53:45.214Z,20.61
2023-05-04T13:56:15.712Z,20.62
2023-05-04T13:58:46.394Z,20.61
2023-05-04T14:01:17.539Z,20.61
2023-05-04T14:03:48.162Z,20.61
2023-05-04T14:06:18.966Z,20.62
2023-05-04T14:08:49.323Z,20.61
2023-05-04T14:11:19.741Z,20.60
2023-05-04T14:13:50.597Z,20.60
2023-05-04T14:16:21.321Z,20.61
2023-05-04T14:18:52.521Z,20.60
2023-05-04T14:21:22.899Z,20.59
2023-05-04T14:23:53.195Z,20.59
2023-05-04T14:26:23.610Z,20.60
2023-05-04T14:28:53.828Z,20.59
2023-05-04T14:31:24.331Z,20.60
2023-05-04T14:33:56.639Z,20.60
2023-05-04T14:36:27.326Z,20.60
2023-05-04T14:38:59.782Z,20.60
2023-05-04T14:41:34.972Z,20.60
2023-05-04T14:44:07.112Z,20.61
2023-05-04T14:46:37.767Z,20.60
2023-05-04T14:49:09.183Z,20.61
2023-05-04T14:51:40.725Z,20.59
2023-05-04T14:54:11.382Z,20.60
2023-05-04T14:56:42.346Z,20.60
2023-05-04T14:59:13.131Z,20.61
2023-05-04T15:01:43.514Z,20.59
2023-05-04T15:04:15.141Z,20.60
2023-05-04T15:06:45.808Z,20.61
2023-05-04T15:09:16.210Z,20.60
2023-05-04T15:11:46.597Z,20.60
2023-05-04T15:14:17.885Z,20.60
2023-05-04T15:16:48.133Z,20.59
2023-05-04T15:19:18.334Z,20.59
2023-05-04T15:21:48.724Z,20.61
2023-05-04T15:24:19.150Z,20.61
2023-05-04T15:26:49.585Z,20.61
2023-05-04T15:29:19.964Z,20.61
2023-05-04T15:31:50.657Z,20.62
2023-05-04T15:34:21.210Z,20.60
2023-05-04T15:36:51.607Z,20.61
2023-05-04T15:39:21.873Z,20.60
2023-05-04T15:41:52.251Z,20.61
2023-05-04T15:44:22.709Z,20.60
2023-05-04T15:46:53.201Z,20.60
2023-05-04T15:49:23.701Z,20.60
2023-05-04T15:51:55.393Z,20.59
2023-05-04T15:54:25.909Z,20.60
2023-05-04T15:56:56.707Z,20.60
2023-05-04T15:59:27.004Z,20.60
2023-05-04T16:01:57.388Z,20.60
2023-05-04T16:04:27.810Z,20.59
2023-05-04T16:06:58.546Z,20.60
2023-05-04T16:09:29.628Z,20.61
2023-05-04T16:12:00.338Z,20.59
2023-05-04T16:14:31.584Z,20.60
2023-05-04T16:17:05.461Z,20.61
2023-05-04T16:19:35.893Z,20.60
2023-05-04T16:22:06.399Z,20.60
2023-05-04T16:24:37.607Z,20.59
2023-05-04T16:27:09.349Z,20.60
2023-05-04T16:29:39.729Z,20.59
2023-05-04T16:32:10.148Z,20.60
2023-05-04T16:34:40.636Z,20.60
2023-05-04T16:37:11.360Z,20.61
2023-05-04T16:39:41.953Z,20.60
2023-05-04T16:42:12.424Z,20.60
2023-05-04T16:44:42.796Z,20.61
2023-05-04T16:47:13.156Z,20.61
2023-05-04T16:49:43.559Z,20.60
2023-05-04T16:52:14.707Z,20.59
2023-05-04T16:54:45.098Z,20.59
2023-05-04T16:57:15.465Z,20.59
2023-05-04T16:59:45.761Z,20.59
2023-05-04T17:02:16.259Z,20.60
2023-05-04T17:04:46.740Z,20.60
2023-05-04T17:07:17.088Z,20.60
2023-05-04T17:09:47.495Z,20.60
2023-05-04T17:12:18.059Z,20.60
2023-05-04T17:14:48.979Z,20.59
2023-05-04T17:17:19.484Z,20.59
2023-05-04T17:19:49.904Z,20.60
2023-05-04T17:22:21.195Z,20.59
2023-05-04T17:24:51.686Z,20.60
2023-05-04T17:27:22.112Z,20.59
2023-05-04T17:29:53.160Z,20.60
2023-05-04T17:32:23.637Z,20.60
2023-05-04T17:34:54.313Z,20.58
2023-05-04T17:37:24.916Z,20.59
2023-05-04T17:39:55.271Z,20.59
2023-05-04T17:42:25.698Z,20.59
2023-05-04T17:44:56.730Z,20.58
2023-05-04T17:47:27.188Z,20.58
2023-05-04T17:49:57.608Z,20.58
2023-05-04T17:52:28.022Z,20.57
2023-05-04T17:54:58.692Z,20.58
2023-05-04T17:57:28.904Z,20.58
2023-05-04T17:59:59.272Z,20.58
2023-05-04T18:02:32.236Z,20.57
2023-05-04T18:05:02.623Z,20.56
2023-05-04T18:07:32.987Z,20.56
2023-05-04T18:10:05.027Z,20.56
2023-05-04T18:12:37.618Z,20.55
2023-05-04T18:15:10.506Z,20.56
2023-05-04T18:17:41.089Z,20.56
2023-05-04T18:20:14.196Z,20.55
2023-05-04T18:22:44.731Z,20.56
2023-05-04T18:25:16.834Z,20.56
2023-05-04T18:27:47.251Z,20.55
2023-05-04T18:30:17.875Z,20.55
2023-05-04T18:32:48.232Z,20.54
2023-05-04T18:35:19.022Z,20.54
2023-05-04T18:37:49.828Z,20.55
2023-05-04T18:40:20.247Z,20.54
2023-05-04T18:42:50.695Z,20.54
2023-05-04T18:45:21.799Z,20.55
2023-05-04T18:47:52.321Z,20.54
2023-05-04T18:50:22.946Z,20.53
2023-05-04T18:52:55.568Z,20.53
2023-05-04T18:55:26.033Z,20.54
2023-05-04T18:57:56.440Z,20.53
2023-05-04T19:00:26.994Z,20.53
2023-05-04T19:02:59.604Z,20.53
2023-05-04T19:05:30.066Z,20.52
2023-05-04T19:08:00.466Z,20.53
2023-05-04T19:10:30.775Z,20.52
2023-05-04T19:13:02.759Z,20.53
2023-05-04T19:15:36.202Z,20.52
2023-05-04T19:18:06.855Z,20.52
2023-05-04T19:20:40.563Z,20.52
2023-05-04T19:23:14.261Z,20.51
2023-05-04T19:25:44.809Z,20.52
2023-05-04T19:28:15.217Z,20.51
2023-05-04T19:30:45.599Z,20.50
2023-05-04T19:33:16.035Z,20.50
2023-05-04T19:35:46.738Z,20.50
2023-05-04T19:38:17.902Z,20.50
2023-05-04T19:40:48.260Z,20.51
2023-05-04T19:43:18.897Z,20.50
2023-05-04T19:45:49.573Z,20.49
2023-05-04T19:48:22.956Z,20.48
2023-05-04T19:50:53.791Z,20.48
2023-05-04T19:53:24.162Z,20.48
2023-05-04T19:55:54.558Z,20.47
2023-05-04T19:58:27.850Z,20.46
2023-05-04T20:00:58.366Z,20.47
2023-05-04T20:03:28.867Z,20.46
2023-05-04T20:05:59.394Z,20.46
2023-05-04T20:08:30.515Z,20.45
2023-05-04T20:11:00.852Z,20.45
2023-05-04T20:13:31.913Z,20.46
2023-05-04T20:16:03.332Z,20.45
2023-05-04T20:18:34.012Z,20.45
2023-05-04T20:21:05.119Z,20.44
2023-05-04T20:23:35.595Z,20.44
2023-05-04T20:26:06.336Z,20.44
2023-05-04T20:28:36.893Z,20.45
2023-05-04T20:31:09.122Z,20.43
2023-05-04T20:33:39.654Z,20.44
2023-05-04T20:36:13.094Z,20.44
2023-05-04T20:38:43.420Z,20.44
2023-05-04T20:41:13.955Z,20.43
2023-05-04T20:43:44.770Z,20.43
2023-05-04T20:46:15.041Z,20.44
2023-05-04T20:48:45.576Z,20.43
2023-05-04T20:51:16.048Z,20.42
2023-05-04T20:53:46.826Z,20.43
2023-05-04T20:56:17.062Z,20.43
2023-05-04T20:58:47.408Z,20.41
2023-05-04T21:01:18.002Z,20.40
2023-05-04T21:03:48.443Z,20.40
2023-05-04T21:06:19.182Z,20.39
2023-05-04T21:08:49.518Z,20.39
2023-05-04T21:11:19.845Z,20.39
2023-05-04T21:13:50.858Z,20.38
2023-05-04T21:16:21.294Z,20.38
2023-05-04T21:18:51.688Z,20.38
2023-05-04T21:21:22.893Z,20.37
2023-05-04T21:23:53.320Z,20.38
2023-05-04T21:26:23.566Z,20.38
2023-05-04T21:28:54.831Z,20.37
2023-05-04T21:31:25.007Z,20.36
2023-05-04T21:33:55.389Z,20.37
2023-05-04T21:36:25.812Z,20.37
2023-05-04T21:38:56.887Z,20.37
2023-05-04T21:41:27.481Z,20.36
2023-05-04T21:43:57.886Z,20.36
2023-05-04T21:46:28.277Z,20.35
2023-05-04T21:48:58.746Z,20.34
2023-05-04T21:51:29.912Z,20.34
2023-05-04T21:54:00.338Z,20.34
2023-05-04T21:56:30.813Z,20.34
2023-05-04T21:59:01.910Z,20.35
2023-05-04T22:01:32.312Z,20.35
2023-05-04T22:04:02.967Z,20.34
2023-05-04T22:06:33.877Z,20.34
2023-05-04T22:09:04.288Z,20.34
2023-05-04T22:11:34.660Z,20.34
2023-05-04T22:14:05.088Z,20.34
2023-05-04T22:16:35.937Z,20.34
2023-05-04T22:19:07.140Z,20.33
2023-05-04T22:21:39.314Z,20.33
2023-05-04T22:24:10.599Z,20.33
2023-05-04T22:26:42.381Z,20.33
2023-05-04T22:29:12.881Z,20.33
2023-05-04T22:31:43.264Z,20.32
2023-05-04T22:34:13.852Z,20.33
2023-05-04T22:36:44.237Z,20.31
2023-05-04T22:39:14.996Z,20.32
2023-05-04T22:41:45.386Z,20.32
2023-05-04T22:44:15.751Z,20.32
2023-05-04T22:46:46.884Z,20.32
2023-05-04T22:49:19.706Z,20.32
2023-05-04T22:51:50.073Z,20.31
2023-05-04T22:54:20.487Z,20.32
2023-05-04T22:56:50.971Z,20.30
2023-05-04T22:59:21.321Z,20.30
2023-05-04T23:01:51.811Z,20.30
2023-05-04T23:04:23.008Z,20.32
2023-05-04T23:06:54.468Z,20.30
2023-05-04T23:09:25.035Z,20.30
2023-05-04T23:11:55.685Z,20.30
2023-05-04T23:14:26.948Z,20.31
2023-05-04T23:16:57.308Z,20.29
2023-05-04T23:19:27.673Z,20.29
2023-05-04T23:21:59.513Z,20.28
2023-05-04T23:24:29.887Z,20.30
2023-05-04T23:27:00.687Z,20.29
2023-05-04T23:29:31.045Z,20.30
2023-05-04T23:32:01.974Z,20.29
2023-05-04T23:34:32.593Z,20.28
2023-05-04T23:37:03.942Z,20.29
2023-05-04T23:39:34.309Z,20.28
2023-05-04T23:42:04.694Z,20.28
2023-05-04T23:44:35.320Z,20.28
2023-05-04T23:47:05.951Z,20.28
2023-05-04T23:49:36.560Z,20.28
2023-05-04T23:52:07.946Z,20.28
2023-05-04T23:54:38.429Z,20.29
2023-05-04T23:57:11.904Z,20.28
2023-05-04T23:59:43.502Z,20.28
